createdAt,value
2022-12-31T00:01:29.623Z,12.90
2022-12-31T00:03:58.592Z,12.20
2022-12-31T00:06:35.977Z,15.40
2022-12-31T00:09:07.110Z,11.40
2022-12-31T00:11:36.539Z,14.80
2022-12-31T00:14:06.288Z,12.20
2022-12-31T00:16:38.070Z,13.50
2022-12-31T00:19:09.715Z,12.80
2022-12-31T00:21:38.861Z,11.10
2022-12-31T00:24:08.068Z,14.40
2022-12-31T00:26:37.369Z,12.50
2022-12-31T00:29:06.342Z,14.00
2022-12-31T00:31:37.280Z,12.10
2022-12-31T00:34:07.112Z,14.40
2022-12-31T00:36:39.441Z,13.00
2022-12-31T00:39:10.720Z,15.40
2022-12-31T00:41:40.727Z,12.20
2022-12-31T00:44:11.459Z,12.00
2022-12-31T00:49:08.016Z,13.70
2022-12-31T00:51:36.704Z,12.10
2022-12-31T00:54:05.839Z,12.40
2022-12-31T00:56:35.738Z,11.50
2022-12-31T00:59:04.594Z,12.00
2022-12-31T01:01:36.744Z,12.70
2022-12-31T01:04:11.688Z,12.20
2022-12-31T01:06:41.196Z,13.00
2022-12-31T01:09:11.418Z,10.40
2022-12-31T01:11:40.413Z,11.30
2022-12-31T01:14:18.432Z,11.40
2022-12-31T01:16:55.828Z,11.90
2022-12-31T01:19:27.378Z,10.50
2022-12-31T01:21:56.778Z,10.90
2022-12-31T01:24:25.962Z,11.10
2022-12-31T01:26:58.447Z,10.30
2022-12-31T01:29:27.824Z,10.40
2022-12-31T01:31:56.508Z,9.90
2022-12-31T01:34:25.111Z,10.50
2022-12-31T01:36:53.799Z,11.00
2022-12-31T01:39:22.780Z,9.80
2022-12-31T01:41:52.498Z,10.30
2022-12-31T01:44:24.244Z,8.80
2022-12-31T01:46:57.242Z,10.70
2022-12-31T01:49:56.144Z,11.00
2022-12-31T01:52:31.882Z,10.70
2022-12-31T01:55:15.098Z,9.90
2022-12-31T01:57:45.218Z,10.50
2022-12-31T02:00:14.570Z,10.60
2022-12-31T02:02:46.075Z,9.10
2022-12-31T02:05:27.993Z,9.80
2022-12-31T02:07:56.952Z,9.20
2022-12-31T02:10:26.079Z,8.90
2022-12-31T02:12:55.162Z,10.30
2022-12-31T02:15:39.205Z,9.50
2022-12-31T02:18:13.825Z,9.20
2022-12-31T02:20:48.994Z,8.30
2022-12-31T02:23:24.605Z,8.40
2022-12-31T02:25:56.066Z,8.50
2022-12-31T02:28:37.222Z,7.90
2022-12-31T02:31:19.187Z,9.40
2022-12-31T02:34:20.305Z,7.70
2022-12-31T02:36:51.017Z,7.70
2022-12-31T02:39:19.689Z,8.00
2022-12-31T02:41:53.107Z,7.70
2022-12-31T02:44:35.918Z,7.80
2022-12-31T02:47:10.120Z,7.60
2022-12-31T02:49:48.320Z,9.00
2022-12-31T02:52:47.441Z,7.40
2022-12-31T02:55:22.045Z,8.00
2022-12-31T02:58:23.089Z,9.90
2022-12-31T03:01:14.669Z,6.20
2022-12-31T03:03:43.719Z,7.10
2022-12-31T03:06:12.799Z,8.70
2022-12-31T03:09:02.903Z,8.60
2022-12-31T03:11:50.119Z,7.30
2022-12-31T03:14:18.809Z,8.10
2022-12-31T03:16:49.528Z,7.10
2022-12-31T03:19:36.666Z,6.90
2022-12-31T03:22:24.095Z,8.00
2022-12-31T03:25:11.392Z,7.70
2022-12-31T03:27:39.978Z,7.20
2022-12-31T03:30:09.379Z,6.40
2022-12-31T03:32:38.074Z,7.40
2022-12-31T03:35:08.143Z,7.20
2022-12-31T03:37:40.957Z,8.10
2022-12-31T03:40:12.332Z,7.40
2022-12-31T03:42:41.505Z,8.00
2022-12-31T03:45:11.104Z,7.80
2022-12-31T03:47:40.194Z,8.30
2022-12-31T03:50:11.017Z,7.10
2022-12-31T03:52:39.630Z,6.50
2022-12-31T03:55:09.571Z,8.70
2022-12-31T03:57:38.960Z,7.60
2022-12-31T04:00:10.881Z,7.80
2022-12-31T04:02:39.902Z,7.60
2022-12-31T04:05:09.285Z,9.00
2022-12-31T04:07:38.046Z,7.40
2022-12-31T04:10:09.241Z,7.10
2022-12-31T04:12:38.240Z,6.80
2022-12-31T04:15:08.360Z,6.90
2022-12-31T04:17:37.241Z,7.80
2022-12-31T04:20:06.702Z,6.50
2022-12-31T04:22:35.442Z,7.10
2022-12-31T04:25:11.609Z,6.30
2022-12-31T04:27:41.819Z,6.80
2022-12-31T04:30:12.875Z,6.70
2022-12-31T04:32:42.170Z,7.20
2022-12-31T04:35:12.282Z,6.70
2022-12-31T04:37:40.965Z,8.10
2022-12-31T04:40:10.359Z,8.00
2022-12-31T04:42:39.157Z,6.50
2022-12-31T04:45:08.734Z,8.00
2022-12-31T04:47:37.256Z,7.70
2022-12-31T04:50:06.817Z,7.30
2022-12-31T04:52:40.455Z,6.70
2022-12-31T04:55:12.011Z,7.70
2022-12-31T04:57:42.351Z,7.10
2022-12-31T05:00:11.614Z,7.50
2022-12-31T05:02:40.407Z,8.40
2022-12-31T05:05:09.967Z,7.40
2022-12-31T05:07:39.734Z,7.80
2022-12-31T05:10:09.843Z,6.80
2022-12-31T05:12:39.166Z,7.50
2022-12-31T05:15:08.765Z,6.60
2022-12-31T05:17:37.747Z,6.60
2022-12-31T05:20:07.258Z,6.20
2022-12-31T05:22:35.864Z,6.50
2022-12-31T05:25:07.082Z,7.40
2022-12-31T05:27:38.520Z,6.50
2022-12-31T05:30:08.430Z,6.00
2022-12-31T05:32:37.143Z,5.50
2022-12-31T05:35:07.600Z,6.90
2022-12-31T05:37:36.134Z,6.00
2022-12-31T05:40:05.962Z,5.90
2022-12-31T05:42:34.449Z,6.10
2022-12-31T05:45:03.509Z,5.20
2022-12-31T05:47:32.625Z,6.00
2022-12-31T05:50:02.442Z,6.20
2022-12-31T05:52:31.320Z,6.50
2022-12-31T05:55:00.014Z,6.60
2022-12-31T05:57:28.800Z,6.30
2022-12-31T05:59:57.604Z,5.30
2022-12-31T06:02:26.588Z,6.30
2022-12-31T06:04:56.278Z,5.70
2022-12-31T06:07:24.760Z,6.30
2022-12-31T06:09:53.434Z,6.10
2022-12-31T06:12:23.169Z,5.60
2022-12-31T06:14:52.054Z,6.20
2022-12-31T06:17:22.676Z,6.70
2022-12-31T06:19:52.275Z,5.90
2022-12-31T06:22:21.103Z,6.70
2022-12-31T06:24:49.645Z,6.90
2022-12-31T06:27:18.441Z,7.90
2022-12-31T06:29:48.096Z,7.80
2022-12-31T06:32:17.663Z,7.30
2022-12-31T06:34:46.439Z,6.80
2022-12-31T06:37:15.228Z,6.70
2022-12-31T06:39:43.904Z,7.20
2022-12-31T06:42:12.939Z,6.80
2022-12-31T06:44:41.791Z,7.60
2022-12-31T06:47:10.386Z,6.80
2022-12-31T06:49:40.971Z,6.60
2022-12-31T06:52:09.721Z,6.90
2022-12-31T06:54:39.102Z,7.00
2022-12-31T06:57:10.524Z,6.20
2022-12-31T06:59:39.642Z,6.30
2022-12-31T07:02:14.294Z,7.20
2022-12-31T07:05:10.939Z,7.30
2022-12-31T07:07:51.650Z,6.10
2022-12-31T07:10:29.790Z,6.10
2022-12-31T07:13:30.403Z,7.40
2022-12-31T07:16:15.108Z,7.50
2022-12-31T07:19:11.404Z,6.40
2022-12-31T07:21:41.678Z,6.40
2022-12-31T07:24:11.695Z,6.20
2022-12-31T07:27:08.484Z,6.00
2022-12-31T07:29:54.912Z,6.30
2022-12-31T07:32:42.328Z,6.30
2022-12-31T07:35:35.216Z,7.60
2022-12-31T07:38:41.668Z,5.40
2022-12-31T07:41:23.920Z,5.00
2022-12-31T07:43:57.151Z,6.30
2022-12-31T07:46:43.902Z,6.10
2022-12-31T07:49:14.100Z,6.00
2022-12-31T07:51:43.478Z,6.50
2022-12-31T07:54:14.377Z,6.00
2022-12-31T07:56:44.156Z,6.60
2022-12-31T07:59:48.840Z,6.40
2022-12-31T08:02:24.517Z,6.90
2022-12-31T08:05:02.004Z,6.70
2022-12-31T08:07:37.246Z,6.30
2022-12-31T08:10:27.629Z,5.70
2022-12-31T08:13:02.297Z,6.40
2022-12-31T08:15:32.190Z,6.50
2022-12-31T08:18:01.391Z,5.90
2022-12-31T08:20:32.100Z,7.00
2022-12-31T08:23:22.334Z,5.40
2022-12-31T08:26:00.756Z,5.70
2022-12-31T08:28:49.880Z,5.50
2022-12-31T08:31:22.418Z,6.30
2022-12-31T08:34:33.311Z,6.80
2022-12-31T08:37:13.293Z,6.30
2022-12-31T08:39:56.080Z,5.30
2022-12-31T08:43:02.355Z,6.70
2022-12-31T08:45:43.404Z,7.10
2022-12-31T08:48:42.416Z,6.40
2022-12-31T08:51:29.859Z,6.00
2022-12-31T08:53:59.463Z,6.50
2022-12-31T08:56:29.385Z,7.40
2022-12-31T08:59:39.526Z,7.80
2022-12-31T09:02:08.788Z,7.50
2022-12-31T09:05:02.702Z,8.70
2022-12-31T09:07:49.002Z,5.50
2022-12-31T09:10:21.890Z,4.60
2022-12-31T09:13:12.990Z,4.10
2022-12-31T09:15:56.803Z,5.30
2022-12-31T09:18:31.367Z,5.00
2022-12-31T09:21:03.621Z,4.00
2022-12-31T09:23:33.019Z,4.40
2022-12-31T09:26:20.640Z,6.10
2022-12-31T09:29:34.195Z,4.20
2022-12-31T09:32:48.579Z,6.00
2022-12-31T09:35:38.952Z,4.60
2022-12-31T09:38:50.312Z,5.00
2022-12-31T09:42:02.778Z,4.50
2022-12-31T09:44:43.087Z,4.30
2022-12-31T09:47:41.801Z,6.30
2022-12-31T09:50:49.283Z,6.30
2022-12-31T09:53:44.492Z,5.70
2022-12-31T09:56:21.185Z,5.30
2022-12-31T09:59:18.181Z,4.70
2022-12-31T10:01:55.150Z,5.90
2022-12-31T10:04:30.047Z,5.20
2022-12-31T10:07:28.821Z,5.50
2022-12-31T10:10:08.328Z,5.20
2022-12-31T10:13:02.939Z,4.90
2022-12-31T10:16:08.284Z,5.50
2022-12-31T10:18:46.923Z,4.70
2022-12-31T10:21:38.843Z,5.10
2022-12-31T10:24:22.975Z,4.70
2022-12-31T10:27:04.044Z,4.80
2022-12-31T10:29:48.717Z,4.00
2022-12-31T10:32:39.521Z,5.60
2022-12-31T10:35:47.435Z,5.20
2022-12-31T10:38:36.190Z,3.70
2022-12-31T10:41:46.949Z,5.30
2022-12-31T10:44:35.182Z,4.40
2022-12-31T10:47:10.864Z,4.00
2022-12-31T10:50:05.151Z,3.70
2022-12-31T10:52:56.169Z,4.50
2022-12-31T10:55:52.744Z,5.00
2022-12-31T10:59:08.788Z,4.60
2022-12-31T11:01:58.980Z,4.00
2022-12-31T11:05:06.362Z,5.30
2022-12-31T11:08:06.175Z,4.50
2022-12-31T11:10:56.460Z,4.20
2022-12-31T11:13:38.584Z,4.00
2022-12-31T11:16:22.544Z,4.60
2022-12-31T11:19:19.354Z,4.50
2022-12-31T11:22:37.398Z,5.90
2022-12-31T11:25:11.920Z,4.80
2022-12-31T11:28:02.418Z,5.80
2022-12-31T11:31:06.868Z,4.70
2022-12-31T11:34:04.404Z,6.70
2022-12-31T11:36:33.465Z,6.10
2022-12-31T11:39:30.770Z,5.40
2022-12-31T11:42:35.381Z,6.50
2022-12-31T11:45:35.520Z,4.80
2022-12-31T11:48:43.132Z,5.30
2022-12-31T11:51:29.799Z,5.30
2022-12-31T11:54:25.322Z,5.00
2022-12-31T11:57:19.203Z,4.50
2022-12-31T11:59:47.993Z,4.30
2022-12-31T12:02:35.466Z,5.20
2022-12-31T12:05:10.962Z,4.80
2022-12-31T12:07:40.684Z,4.70
2022-12-31T12:10:35.635Z,4.80
2022-12-31T12:13:20.068Z,4.60
2022-12-31T12:15:51.568Z,4.50
2022-12-31T12:18:45.141Z,4.60
2022-12-31T12:21:19.314Z,6.10
2022-12-31T12:24:00.434Z,4.80
2022-12-31T12:26:39.400Z,4.30
2022-12-31T12:29:12.291Z,5.40
2022-12-31T12:31:41.588Z,5.20
2022-12-31T12:34:37.927Z,5.50
2022-12-31T12:37:37.640Z,4.60
2022-12-31T12:40:33.341Z,6.60
2022-12-31T12:43:04.278Z,4.30
2022-12-31T12:45:52.155Z,4.40
2022-12-31T12:48:40.660Z,3.70
2022-12-31T12:51:26.934Z,4.50
2022-12-31T12:54:12.098Z,4.60
2022-12-31T12:57:10.715Z,5.40
2022-12-31T12:59:48.065Z,5.40
2022-12-31T13:02:47.012Z,5.40
2022-12-31T13:06:11.980Z,6.10
2022-12-31T13:08:55.645Z,5.50
2022-12-31T13:11:37.715Z,6.70
2022-12-31T13:14:16.139Z,6.20
2022-12-31T13:17:33.554Z,5.70
2022-12-31T13:20:21.690Z,5.00
2022-12-31T13:23:18.644Z,4.80
2022-12-31T13:26:06.179Z,4.00
2022-12-31T13:28:36.304Z,5.10
2022-12-31T13:31:12.956Z,5.00
2022-12-31T13:33:48.680Z,5.40
2022-12-31T13:36:22.657Z,4.90
2022-12-31T13:39:03.624Z,5.50
2022-12-31T13:41:32.288Z,4.50
2022-12-31T13:44:17.469Z,5.20
2022-12-31T13:47:13.505Z,4.80
2022-12-31T13:49:49.019Z,4.90
2022-12-31T13:52:34.705Z,5.00
2022-12-31T13:55:26.073Z,5.30
2022-12-31T13:58:13.706Z,6.10
2022-12-31T14:00:53.857Z,4.70
2022-12-31T14:03:41.119Z,6.60
2022-12-31T14:06:15.163Z,5.40
2022-12-31T14:08:45.151Z,5.50
2022-12-31T14:11:29.101Z,5.20
2022-12-31T14:14:06.787Z,5.10
2022-12-31T14:16:45.562Z,6.70
2022-12-31T14:19:33.298Z,4.80
2022-12-31T14:22:24.363Z,6.10
2022-12-31T14:24:53.860Z,6.80
2022-12-31T14:27:35.288Z,5.60
2022-12-31T14:30:07.762Z,5.60
2022-12-31T14:32:58.633Z,6.10
2022-12-31T14:35:36.031Z,5.70
2022-12-31T14:38:27.123Z,5.60
2022-12-31T14:41:33.834Z,5.70
2022-12-31T14:44:30.561Z,7.90
2022-12-31T14:47:17.282Z,10.30
2022-12-31T14:50:10.231Z,7.30
2022-12-31T14:53:00.309Z,4.40
2022-12-31T14:55:32.410Z,5.70
2022-12-31T15:00:58.498Z,5.10
2022-12-31T15:03:37.894Z,6.00
2022-12-31T15:06:24.631Z,5.20
2022-12-31T15:09:20.647Z,5.90
2022-12-31T15:12:17.942Z,5.20
2022-12-31T15:15:08.842Z,6.30
2022-12-31T15:17:46.740Z,6.50
2022-12-31T15:20:51.073Z,6.00
2022-12-31T15:23:24.841Z,5.60
2022-12-31T15:26:02.600Z,5.50
2022-12-31T15:28:39.765Z,5.30
2022-12-31T15:31:17.423Z,5.60
2022-12-31T15:34:06.065Z,5.20
2022-12-31T15:36:39.890Z,6.10
2022-12-31T15:39:11.650Z,7.20
2022-12-31T15:42:18.237Z,5.40
2022-12-31T15:45:06.686Z,6.40
2022-12-31T15:47:37.787Z,6.00
2022-12-31T15:50:18.819Z,5.90
2022-12-31T15:52:54.665Z,5.10
2022-12-31T15:55:45.168Z,5.90
2022-12-31T15:58:32.365Z,6.20
2022-12-31T16:01:19.763Z,7.50
2022-12-31T16:03:58.285Z,6.50
2022-12-31T16:06:30.283Z,6.90
2022-12-31T16:08:59.483Z,7.00
2022-12-31T16:11:30.834Z,8.80
2022-12-31T16:14:00.271Z,7.00
2022-12-31T16:16:31.796Z,6.90
2022-12-31T16:19:01.694Z,6.30
2022-12-31T16:21:37.936Z,6.70
2022-12-31T16:24:23.372Z,6.70
2022-12-31T16:26:54.484Z,6.60
2022-12-31T16:29:24.186Z,7.70
2022-12-31T16:31:54.301Z,7.20
2022-12-31T16:34:25.266Z,7.20
2022-12-31T16:37:02.629Z,7.90
2022-12-31T16:39:36.445Z,7.70
2022-12-31T16:42:18.575Z,7.80
2022-12-31T16:44:49.796Z,7.80
2022-12-31T16:47:24.057Z,8.60
2022-12-31T16:50:00.532Z,7.40
2022-12-31T16:52:40.059Z,7.20
2022-12-31T16:55:12.473Z,5.60
2022-12-31T16:57:43.282Z,5.50
2022-12-31T17:00:17.423Z,6.40
2022-12-31T17:02:51.022Z,6.60
2022-12-31T17:05:25.250Z,7.40
2022-12-31T17:07:54.646Z,8.20
2022-12-31T17:10:26.178Z,6.00
2022-12-31T17:15:49.108Z,5.90
2022-12-31T17:18:23.696Z,5.50
2022-12-31T17:20:53.808Z,6.20
2022-12-31T17:23:27.599Z,5.10
2022-12-31T17:26:01.171Z,6.60
2022-12-31T17:28:37.504Z,5.80
2022-12-31T17:31:33.886Z,6.30
2022-12-31T17:34:14.686Z,6.60
2022-12-31T17:37:29.240Z,6.50
2022-12-31T17:40:48.733Z,6.90
2022-12-31T17:42:52.562Z,6.00
2022-12-31T17:45:22.374Z,5.70
2022-12-31T17:47:54.119Z,6.10
2022-12-31T17:50:25.357Z,6.90
2022-12-31T17:53:09.982Z,7.10
2022-12-31T17:55:38.851Z,5.60
2022-12-31T17:58:08.286Z,6.10
2022-12-31T18:00:37.613Z,6.10
2022-12-31T18:03:06.411Z,6.30
2022-12-31T18:05:35.462Z,6.30
2022-12-31T18:08:04.579Z,6.50
2022-12-31T18:10:37.049Z,8.10
2022-12-31T18:13:06.975Z,7.70
2022-12-31T18:15:35.638Z,6.60
2022-12-31T18:18:20.934Z,6.40
2022-12-31T18:20:57.586Z,7.70
2022-12-31T18:23:29.999Z,7.90
2022-12-31T18:25:58.749Z,8.40
2022-12-31T18:28:27.418Z,7.50
2022-12-31T18:30:56.423Z,6.80
2022-12-31T18:33:27.167Z,7.70
2022-12-31T18:36:08.672Z,7.50
2022-12-31T18:38:39.656Z,6.20
2022-12-31T18:41:21.883Z,6.70
2022-12-31T18:43:52.498Z,6.70
2022-12-31T18:46:23.915Z,7.40
2022-12-31T18:48:52.976Z,6.50
2022-12-31T18:51:29.611Z,7.10
2022-12-31T18:54:01.540Z,7.20
2022-12-31T18:56:30.380Z,6.60
2022-12-31T18:59:00.122Z,5.70
2022-12-31T19:01:34.471Z,6.70
2022-12-31T19:04:27.014Z,6.30
2022-12-31T19:06:57.910Z,6.10
2022-12-31T19:12:16.057Z,7.20
2022-12-31T19:14:46.073Z,8.20
2022-12-31T19:17:14.845Z,7.60
2022-12-31T19:19:43.649Z,9.20
2022-12-31T19:22:16.981Z,7.60
2022-12-31T19:24:45.509Z,6.10
2022-12-31T19:27:15.515Z,6.30
2022-12-31T19:29:44.419Z,7.50
2022-12-31T19:32:13.553Z,5.80
2022-12-31T19:34:42.634Z,6.80
2022-12-31T19:37:16.402Z,6.60
2022-12-31T19:39:44.998Z,5.70
2022-12-31T19:42:15.841Z,7.40
2022-12-31T19:44:44.402Z,6.50
2022-12-31T19:47:13.924Z,7.00
2022-12-31T19:49:42.596Z,7.30
2022-12-31T19:52:11.530Z,6.00
2022-12-31T19:54:40.479Z,5.70
2022-12-31T19:57:09.486Z,8.20
2022-12-31T19:59:38.589Z,6.40
2022-12-31T20:02:08.017Z,6.40
2022-12-31T20:04:37.123Z,6.30
2022-12-31T20:07:06.789Z,7.80
2022-12-31T20:09:35.403Z,8.70
2022-12-31T20:12:04.468Z,7.20
2022-12-31T20:14:33.763Z,9.50
2022-12-31T20:17:02.598Z,7.90
2022-12-31T20:19:32.157Z,6.70
2022-12-31T20:22:00.837Z,7.60
2022-12-31T20:24:29.739Z,7.60
2022-12-31T20:26:59.340Z,7.40
2022-12-31T20:29:28.305Z,7.30
2022-12-31T20:31:57.436Z,7.10
2022-12-31T20:34:26.944Z,7.70
2022-12-31T20:36:56.028Z,7.60
2022-12-31T20:39:24.699Z,7.70
2022-12-31T20:41:53.780Z,8.90
2022-12-31T20:44:22.701Z,7.30
2022-12-31T20:46:51.611Z,7.20
2022-12-31T20:49:31.372Z,6.40
2022-12-31T20:52:09.262Z,6.60
2022-12-31T20:54:38.339Z,5.90
2022-12-31T20:57:07.727Z,6.80
2022-12-31T20:59:36.505Z,7.20
2022-12-31T21:02:21.110Z,6.80
2022-12-31T21:04:50.750Z,8.20
2022-12-31T21:07:19.881Z,6.80
2022-12-31T21:09:48.559Z,7.30
2022-12-31T21:12:36.494Z,6.70
2022-12-31T21:15:06.592Z,7.20
2022-12-31T21:17:36.245Z,7.90
2022-12-31T21:20:07.065Z,8.10
2022-12-31T21:22:35.964Z,7.00
2022-12-31T21:25:05.251Z,6.20
2022-12-31T21:27:33.938Z,8.00
2022-12-31T21:30:18.157Z,7.60
2022-12-31T21:32:48.624Z,6.60
2022-12-31T21:38:08.346Z,6.80
2022-12-31T21:40:37.526Z,6.90
2022-12-31T21:43:08.865Z,7.10
2022-12-31T21:45:38.466Z,7.80
2022-12-31T21:48:20.577Z,8.30
2022-12-31T21:51:05.840Z,7.90
2022-12-31T21:53:37.156Z,8.20
2022-12-31T21:56:10.404Z,7.60
2022-12-31T21:58:44.379Z,6.90
2022-12-31T22:01:37.702Z,7.40
2022-12-31T22:04:28.221Z,6.50
2022-12-31T22:06:57.439Z,6.30
2022-12-31T22:09:26.343Z,13.40
2022-12-31T22:11:55.127Z,7.60
2022-12-31T22:14:23.919Z,6.90
2022-12-31T22:16:52.602Z,6.80
2022-12-31T22:19:21.894Z,9.00
2022-12-31T22:21:51.398Z,15.80
2022-12-31T22:24:20.178Z,17.50
2022-12-31T22:26:49.069Z,17.50
2022-12-31T22:29:19.489Z,14.30
2022-12-31T22:31:48.085Z,16.80
2022-12-31T22:34:17.275Z,14.90
2022-12-31T22:36:45.873Z,7.70
2022-12-31T22:39:43.709Z,9.30
2022-12-31T22:42:05.463Z,12.60
2022-12-31T22:44:34.419Z,13.00
2022-12-31T22:47:03.174Z,7.40
2022-12-31T22:49:31.921Z,6.20
2022-12-31T22:52:05.592Z,5.80
2022-12-31T22:54:37.269Z,5.80
2022-12-31T22:57:06.030Z,6.40
2022-12-31T22:59:34.862Z,7.00
2022-12-31T23:02:03.737Z,15.00
2022-12-31T23:04:33.199Z,14.00
2022-12-31T23:07:02.259Z,12.70
2022-12-31T23:09:49.979Z,10.60
2022-12-31T23:12:18.858Z,6.50
2022-12-31T23:15:06.602Z,5.80
2022-12-31T23:17:54.343Z,6.80
2022-12-31T23:20:43.911Z,6.40
2022-12-31T23:23:17.197Z,6.80
2022-12-31T23:25:48.090Z,7.00
2022-12-31T23:28:25.003Z,6.60
2022-12-31T23:30:54.044Z,6.10
2022-12-31T23:33:26.614Z,6.40
2022-12-31T23:36:07.928Z,7.10
2022-12-31T23:38:36.661Z,6.10
2022-12-31T23:41:16.445Z,5.90
2022-12-31T23:43:45.379Z,6.70
2022-12-31T23:46:15.128Z,6.40
2022-12-31T23:48:43.791Z,5.70
2022-12-31T23:51:12.560Z,6.90
2022-12-31T23:53:41.466Z,6.50
2022-12-31T23:56:20.942Z,7.10
2022-12-31T23:58:56.169Z,6.90
